Time;durP1;ratioP1;P1;durP2;ratioP2;P2;SDS_P1;SDS_P2;PMS_P1;PMS_P2;Temp;Humidity;BMP_temperature;BMP_pressure;BME280_temperature;BME280_humidity;BME280_pressure;Samples;Min_cycle;Max_cycle;Signal;HPM_P1;HPM_P2
2023/06/06 00:00:57;;;;;;;2.58;0.70;;;;;;;31.67;15.19;100647.09;5026999;28;20077;-72
2023/06/06 00:03:31;;;;;;;1.77;0.77;;;;;;;31.61;13.12;100650.16;5023018;28;20092;-73
2023/06/06 00:06:07;;;;;;;3.60;0.80;;;;;;;31.51;13.52;100651.66;5024405;28;20057;-74
2023/06/06 00:08:41;;;;;;;3.10;0.70;;;;;;;31.51;14.65;100646.31;5017057;28;20139;-74
2023/06/06 00:11:15;;;;;;;5.88;1.40;;;;;;;31.52;13.68;100653.38;5026890;28;20122;-73
2023/06/06 00:13:50;;;;;;;2.20;0.70;;;;;;;31.39;14.61;100650.53;5017906;28;20145;-74
2023/06/06 00:16:19;;;;;;;3.95;0.85;;;;;;;31.37;12.64;100644.41;5020540;28;20512;-74
2023/06/06 00:18:50;;;;;;;2.20;0.55;;;;;;;31.36;14.24;100636.47;5017223;28;20082;-76
2023/06/06 00:21:22;;;;;;;1.57;0.60;;;;;;;31.34;13.78;100638.38;5021161;28;20065;-75
2023/06/06 00:23:54;;;;;;;2.05;0.70;;;;;;;31.27;12.68;100636.09;5020607;28;20120;-73
2023/06/06 00:26:26;;;;;;;1.75;0.60;;;;;;;31.26;14.57;100642.38;5021347;28;20041;-74
2023/06/06 00:29:04;;;;;;;5.20;1.00;;;;;;;31.27;13.36;100633.41;5021787;28;20072;-73
2023/06/06 00:31:33;;;;;;;1.70;0.95;;;;;;;31.27;12.82;100621.88;5026709;28;20056;-73
2023/06/06 00:34:06;;;;;;;2.75;0.80;;;;;;;31.25;12.93;100621.09;5024504;28;20045;-74
2023/06/06 00:36:36;;;;;;;2.15;0.80;;;;;;;31.24;14.80;100624.72;5027337;28;20491;-73
2023/06/06 00:39:07;;;;;;;1.95;0.85;;;;;;;31.22;13.69;100615.91;5028631;28;20057;-74
2023/06/06 00:41:35;;;;;;;2.23;0.60;;;;;;;31.18;12.74;100617.06;5026261;28;20050;-75
2023/06/06 00:44:10;;;;;;;2.17;0.70;;;;;;;31.14;12.48;100612.84;5023858;28;20053;-76
2023/06/06 00:46:45;;;;;;;2.15;0.70;;;;;;;31.14;12.77;100628.88;5022833;28;20049;-78
2023/06/06 00:49:20;;;;;;;2.60;0.73;;;;;;;31.01;13.11;100621.56;5019383;28;20128;-73
2023/06/06 00:52:04;;;;;;;1.52;0.65;;;;;;;30.93;13.25;100615.81;5019391;28;20046;-73
2023/06/06 00:54:37;;;;;;;6.20;0.82;;;;;;;30.89;14.25;100614.28;5021738;28;20100;-76
2023/06/06 00:57:07;;;;;;;4.88;0.93;;;;;;;30.85;13.65;100618.06;5015629;28;20071;-74
2023/06/06 00:59:38;;;;;;;3.85;1.00;;;;;;;30.77;13.79;100618.47;5021912;28;20053;-75
2023/06/06 01:02:17;;;;;;;1.80;0.70;;;;;;;30.69;12.86;100621.59;5027092;28;20041;-73
2023/06/06 01:04:50;;;;;;;2.13;0.70;;;;;;;30.65;12.63;100620.03;5023591;28;20067;-73
2023/06/06 01:07:24;;;;;;;2.78;1.00;;;;;;;30.57;10.77;100611.59;5025351;28;20136;-73
2023/06/06 01:09:58;;;;;;;2.28;0.70;;;;;;;30.46;11.42;100608.66;5024341;28;20054;-72
2023/06/06 01:12:36;;;;;;;1.92;0.77;;;;;;;30.36;13.58;100602.13;5024743;28;20136;-72
2023/06/06 01:15:13;;;;;;;2.35;0.90;;;;;;;30.37;11.88;100599.34;5025153;28;20061;-72
2023/06/06 01:17:46;;;;;;;3.03;0.80;;;;;;;30.34;13.24;100604.00;5019871;28;20137;-74
2023/06/06 01:20:22;;;;;;;1.38;0.82;;;;;;;30.29;11.68;100608.75;5022423;28;20053;-74
2023/06/06 01:22:54;;;;;;;3.05;0.70;;;;;;;30.23;11.60;100604.56;5026854;28;20056;-73
2023/06/06 01:25:30;;;;;;;5.13;0.90;;;;;;;30.20;11.97;100600.25;5025175;28;20049;-73
2023/06/06 01:28:00;;;;;;;1.80;1.00;;;;;;;30.20;11.58;100613.59;5024670;28;20137;-74
2023/06/06 01:30:38;;;;;;;2.28;0.80;;;;;;;30.15;11.28;100597.00;5021846;28;20085;-73
2023/06/06 01:33:20;;;;;;;16.25;3.13;;;;;;;30.10;12.17;100599.06;5028935;28;20746;-76
2023/06/06 01:36:03;;;;;;;4.38;0.90;;;;;;;30.08;13.55;100598.28;5027804;28;20083;-74
2023/06/06 01:38:45;;;;;;;2.78;0.65;;;;;;;29.99;11.93;100596.97;5020687;28;20144;-75
2023/06/06 01:41:20;;;;;;;2.75;0.80;;;;;;;29.93;11.07;100599.94;5023480;28;20480;-73
2023/06/06 01:44:01;;;;;;;3.22;0.90;;;;;;;29.89;14.13;100608.19;5022831;28;20525;-75
2023/06/06 01:46:32;;;;;;;2.50;0.70;;;;;;;29.73;12.64;100602.81;5030274;28;20055;-74
2023/06/06 01:49:03;;;;;;;1.35;0.80;;;;;;;29.64;12.03;100606.78;5016323;28;20049;-75
2023/06/06 01:51:34;;;;;;;2.60;0.70;;;;;;;29.50;10.34;100591.53;5023836;28;20056;-74
2023/06/06 01:54:08;;;;;;;3.83;0.90;;;;;;;29.40;13.50;100599.13;5017530;28;20045;-74
2023/06/06 01:56:39;;;;;;;2.65;0.90;;;;;;;29.22;11.86;100592.94;5024890;28;20201;-75
2023/06/06 01:59:08;;;;;;;4.68;0.73;;;;;;;29.12;12.67;100604.16;5027913;28;20049;-74
2023/06/06 02:01:37;;;;;;;1.27;0.80;;;;;;;28.96;10.87;100610.22;5027686;28;20049;-74
2023/06/06 02:04:06;;;;;;;3.30;0.60;;;;;;;28.88;12.26;100601.72;5031334;28;20053;-71
2023/06/06 02:06:35;;;;;;;3.38;0.90;;;;;;;28.81;11.74;100609.16;5024740;28;20049;-73
2023/06/06 02:09:07;;;;;;;3.97;1.00;;;;;;;28.77;13.52;100606.72;5028666;28;20057;-74
2023/06/06 02:11:36;;;;;;;2.75;0.63;;;;;;;28.68;11.76;100612.50;5024110;28;20061;-73
2023/06/06 02:14:08;;;;;;;1.27;0.60;;;;;;;28.59;13.77;100612.00;5026875;28;20071;-74
2023/06/06 02:16:37;;;;;;;0.70;0.55;;;;;;;28.47;11.11;100615.25;5019350;28;20057;-73
2023/06/06 02:19:06;;;;;;;1.30;0.63;;;;;;;28.39;12.54;100625.38;5027833;28;20048;-73
2023/06/06 02:21:35;;;;;;;0.85;0.47;;;;;;;28.29;13.59;100616.06;5024486;28;20118;-73
2023/06/06 02:24:10;;;;;;;1.20;0.60;;;;;;;28.00;10.58;100615.63;5006070;28;20096;-73
2023/06/06 02:26:42;;;;;;;1.38;0.70;;;;;;;27.93;12.56;100614.19;5003738;28;20054;-73
2023/06/06 02:29:10;;;;;;;4.38;0.70;;;;;;;27.85;11.78;100618.97;5008560;28;20113;-72
2023/06/06 02:31:39;;;;;;;1.70;0.60;;;;;;;27.82;11.83;100624.41;5005656;28;20058;-73
2023/06/06 02:34:10;;;;;;;0.70;0.60;;;;;;;27.74;11.56;100614.97;5007982;28;20514;-73
2023/06/06 02:36:39;;;;;;;2.08;0.80;;;;;;;27.71;11.94;100615.09;5002749;28;20554;-72
2023/06/06 02:39:09;;;;;;;1.38;0.70;;;;;;;27.68;13.24;100620.56;4999807;28;20048;-72
2023/06/06 02:41:38;;;;;;;1.50;0.60;;;;;;;27.59;14.13;100618.28;5007603;28;20046;-72
2023/06/06 02:44:10;;;;;;;1.20;0.60;;;;;;;27.46;11.84;100609.97;5009449;28;20373;-72
2023/06/06 02:46:39;;;;;;;0.90;0.68;;;;;;;27.38;13.54;100605.94;5008480;28;20087;-73
2023/06/06 02:49:07;;;;;;;1.42;0.80;;;;;;;27.28;14.33;100609.00;5009895;28;20054;-72
2023/06/06 02:51:36;;;;;;;0.90;0.50;;;;;;;27.18;16.02;100610.25;5003814;28;20053;-71
2023/06/06 02:54:05;;;;;;;2.72;0.75;;;;;;;27.00;13.87;100601.25;5007779;28;20042;-71
2023/06/06 02:56:37;;;;;;;1.38;0.65;;;;;;;26.94;13.43;100612.16;5008036;28;20069;-71
2023/06/06 02:59:07;;;;;;;1.42;0.63;;;;;;;26.86;16.00;100609.78;5001182;28;20144;-70
2023/06/06 03:01:36;;;;;;;2.50;0.70;;;;;;;26.77;14.27;100610.16;5002552;28;20053;-71
2023/06/06 03:04:04;;;;;;;2.13;0.82;;;;;;;26.66;16.62;100612.38;5004056;28;20065;-71
2023/06/06 03:06:36;;;;;;;1.20;0.65;;;;;;;26.53;15.70;100607.53;5008341;28;20526;-72
2023/06/06 03:09:05;;;;;;;1.75;0.73;;;;;;;26.47;15.02;100607.75;5010241;28;20054;-73
2023/06/06 03:11:35;;;;;;;2.42;0.60;;;;;;;26.42;17.98;100620.34;5010538;28;20072;-73
2023/06/06 03:14:04;;;;;;;2.45;0.70;;;;;;;26.37;17.35;100610.84;5004388;28;20054;-71
2023/06/06 03:16:34;;;;;;;3.38;0.75;;;;;;;26.29;16.36;100608.47;5007108;28;20049;-70
2023/06/06 03:19:03;;;;;;;0.93;0.60;;;;;;;26.25;15.46;100612.16;5007735;28;20046;-70
2023/06/06 03:21:33;;;;;;;1.05;0.52;;;;;;;26.14;13.89;100617.88;5006549;28;20046;-71
2023/06/06 03:24:02;;;;;;;1.40;0.70;;;;;;;26.03;17.26;100615.63;5022895;28;20140;-72
2023/06/06 03:26:31;;;;;;;1.10;0.70;;;;;;;25.96;16.90;100614.13;5024539;28;20132;-71
2023/06/06 03:29:03;;;;;;;1.83;0.73;;;;;;;25.86;16.73;100616.22;5025641;28;20080;-72
2023/06/06 03:31:31;;;;;;;;;;;;;;;25.80;15.62;100612.94;5025781;28;20057;-71
2023/06/06 03:33:59;;;;;;;1.02;0.60;;;;;;;25.70;15.78;100621.22;5021175;28;19994;-72
2023/06/06 03:36:32;;;;;;;2.10;0.60;;;;;;;25.61;15.94;100620.63;5026623;28;20053;-72
2023/06/06 03:39:00;;;;;;;1.25;0.82;;;;;;;25.48;15.21;100610.47;5027687;28;20045;-70
2023/06/06 03:41:31;;;;;;;3.53;0.75;;;;;;;25.39;15.27;100613.44;5024907;28;20049;-71
2023/06/06 03:44:01;;;;;;;1.20;0.50;;;;;;;25.29;15.76;100612.91;5027904;28;20136;-71
2023/06/06 03:46:30;;;;;;;1.27;0.60;;;;;;;25.22;16.26;100624.63;5027742;28;20057;-72
2023/06/06 03:48:59;;;;;;;2.38;0.57;;;;;;;25.09;16.94;100617.97;5024746;28;20732;-71
2023/06/06 03:51:27;;;;;;;1.40;0.75;;;;;;;25.00;17.48;100631.50;5023933;28;20103;-71
2023/06/06 03:53:56;;;;;;;1.52;0.60;;;;;;;24.86;16.65;100624.88;5020825;28;20053;-71
2023/06/06 03:56:24;;;;;;;2.58;0.55;;;;;;;24.76;17.82;100626.09;5025258;28;20085;-69
2023/06/06 03:58:53;;;;;;;1.90;0.60;;;;;;;24.65;15.63;100633.50;5026685;28;20085;-72
2023/06/06 04:01:23;;;;;;;1.23;0.75;;;;;;;24.56;17.07;100626.69;5025264;28;20064;-71
2023/06/06 04:03:52;;;;;;;1.40;0.70;;;;;;;24.45;15.71;100640.19;5028189;28;20038;-71
2023/06/06 04:06:22;;;;;;;0.80;0.50;;;;;;;24.36;17.21;100640.47;5027304;28;20119;-71
2023/06/06 04:08:51;;;;;;;2.85;0.75;;;;;;;24.27;17.38;100648.69;5025826;28;20053;-70
2023/06/06 04:11:19;;;;;;;0.88;0.70;;;;;;;24.15;17.32;100643.75;5021628;28;20442;-71
2023/06/06 04:13:48;;;;;;;1.10;0.65;;;;;;;24.02;21.88;100644.06;5022621;28;20059;-72
2023/06/06 04:16:16;;;;;;;0.82;0.52;;;;;;;23.88;19.90;100640.97;5027475;28;20487;-72
2023/06/06 04:18:47;;;;;;;4.05;0.68;;;;;;;23.76;18.51;100643.94;5025418;28;20517;-71
2023/06/06 04:21:15;;;;;;;0.93;0.60;;;;;;;23.59;15.77;100642.59;5025514;28;20139;-72
2023/06/06 04:23:45;;;;;;;1.98;0.77;;;;;;;23.49;19.67;100642.84;5026202;28;20143;-72
2023/06/06 04:26:24;;;;;;;1.75;0.75;;;;;;;23.33;19.22;100645.88;5021337;28;20049;-71
2023/06/06 04:28:53;;;;;;;2.33;0.90;;;;;;;23.17;19.39;100653.31;5027667;28;20610;-72
2023/06/06 04:31:23;;;;;;;1.35;0.70;;;;;;;23.00;17.24;100647.59;5022172;28;20095;-72
2023/06/06 04:33:54;;;;;;;2.65;0.65;;;;;;;22.87;16.36;100643.47;5026176;28;20041;-72
2023/06/06 04:36:24;;;;;;;1.95;0.70;;;;;;;22.78;18.34;100649.81;5024989;28;20507;-71
2023/06/06 04:39:00;;;;;;;4.32;0.70;;;;;;;22.70;18.33;100651.72;5023063;28;20049;-72
2023/06/06 04:41:30;;;;;;;1.55;0.80;;;;;;;22.60;17.39;100648.44;5023791;28;20065;-72
2023/06/06 04:44:01;;;;;;;3.22;0.80;;;;;;;22.49;16.93;100642.53;5027750;28;20247;-71
2023/06/06 04:46:30;;;;;;;1.25;0.77;;;;;;;22.39;17.38;100639.22;5025611;28;20045;-72
2023/06/06 04:49:01;;;;;;;1.77;0.60;;;;;;;22.28;16.97;100638.59;5024618;28;20172;-72
2023/06/06 04:51:31;;;;;;;1.08;0.60;;;;;;;22.16;18.65;100642.31;5028123;28;20053;-71
2023/06/06 04:54:00;;;;;;;2.03;0.70;;;;;;;22.06;18.01;100641.63;5023148;28;20663;-71
2023/06/06 04:56:29;;;;;;;1.45;0.75;;;;;;;21.95;19.45;100644.47;5028682;28;20045;-71
2023/06/06 04:59:04;;;;;;;1.17;0.80;;;;;;;21.80;19.13;100644.75;5024308;28;20140;-71
2023/06/06 05:01:36;;;;;;;2.65;0.90;;;;;;;21.67;18.03;100644.13;5024438;28;20049;-72
2023/06/06 05:04:06;;;;;;;1.93;0.80;;;;;;;21.58;18.21;100644.28;5025437;28;20085;-69
2023/06/06 05:06:35;;;;;;;1.17;0.70;;;;;;;21.49;19.19;100644.44;5026957;28;20085;-70
2023/06/06 05:09:05;;;;;;;2.90;1.00;;;;;;;21.38;17.84;100628.81;5029874;28;20041;-70
2023/06/06 05:11:33;;;;;;;2.15;0.63;;;;;;;21.39;18.35;100641.03;5022544;28;20045;-70
2023/06/06 05:14:02;;;;;;;1.83;0.73;;;;;;;21.34;18.54;100637.63;5024042;28;20096;-71
2023/06/06 05:16:30;;;;;;;0.95;0.40;;;;;;;21.26;18.58;100634.28;5025797;28;20049;-70
2023/06/06 05:18:59;;;;;;;2.40;0.60;;;;;;;21.18;17.85;100647.53;5027002;28;20054;-70
2023/06/06 05:21:30;;;;;;;0.93;0.60;;;;;;;21.10;18.64;100645.03;5019556;28;20065;-69
2023/06/06 05:23:59;;;;;;;1.43;0.50;;;;;;;21.02;18.37;100648.69;5017030;28;20430;-70
2023/06/06 05:26:27;;;;;;;1.13;0.50;;;;;;;20.94;19.12;100643.53;5013314;28;20640;-70
2023/06/06 05:28:56;;;;;;;4.47;0.77;;;;;;;20.83;18.74;100633.16;5011158;28;20045;-70
2023/06/06 05:31:25;;;;;;;1.45;0.68;;;;;;;20.79;20.07;100641.13;5012393;28;20057;-70
2023/06/06 05:33:53;;;;;;;5.20;0.90;;;;;;;20.68;18.95;100638.66;5012966;28;20483;-70
2023/06/06 05:36:22;;;;;;;1.45;0.68;;;;;;;20.60;21.58;100637.91;5004870;28;20050;-70
2023/06/06 05:38:52;;;;;;;3.00;0.65;;;;;;;20.47;22.25;100635.38;5008085;28;20058;-70
2023/06/06 05:41:21;;;;;;;2.72;0.60;;;;;;;20.34;20.04;100630.31;5012459;28;20912;-70
2023/06/06 05:43:50;;;;;;;1.10;0.60;;;;;;;20.22;23.21;100631.34;5011990;28;20056;-69
2023/06/06 05:46:19;;;;;;;0.55;0.50;;;;;;;20.16;21.50;100641.91;5013908;28;20597;-69
2023/06/06 05:48:47;;;;;;;1.60;0.50;;;;;;;20.10;19.65;100642.84;5012919;28;20049;-70
2023/06/06 05:51:17;;;;;;;1.88;0.80;;;;;;;20.03;21.73;100642.06;5010594;28;20050;-70
2023/06/06 05:53:47;;;;;;;3.25;0.85;;;;;;;19.95;21.13;100641.28;5015479;28;20057;-70
2023/06/06 05:56:18;;;;;;;1.13;0.63;;;;;;;19.87;21.05;100635.25;5009459;28;20053;-69
2023/06/06 05:58:49;;;;;;;1.25;0.73;;;;;;;19.81;21.22;100641.44;5008025;28;20049;-70
2023/06/06 06:01:19;;;;;;;1.33;0.57;;;;;;;19.70;21.00;100632.81;5007521;28;20128;-70
2023/06/06 06:03:52;;;;;;;0.70;0.47;;;;;;;19.66;19.58;100636.31;5004505;28;20517;-70
2023/06/06 06:06:21;;;;;;;1.33;0.50;;;;;;;19.63;20.69;100636.31;5012117;28;20115;-71
2023/06/06 06:08:50;;;;;;;1.50;0.47;;;;;;;19.56;21.73;100632.00;5007693;28;20058;-71
2023/06/06 06:11:20;;;;;;;1.17;0.60;;;;;;;19.53;21.20;100632.03;5011040;28;20046;-71
2023/06/06 06:13:48;;;;;;;1.95;0.50;;;;;;;19.48;21.46;100620.72;5007717;28;20130;-70
2023/06/06 06:16:19;;;;;;;1.83;0.77;;;;;;;19.45;21.63;100627.75;5011489;28;20700;-70
2023/06/06 06:18:48;;;;;;;1.85;0.60;;;;;;;19.40;21.89;100634.78;5007804;28;20057;-70
2023/06/06 06:21:16;;;;;;;1.02;0.60;;;;;;;19.38;23.23;100636.56;5006776;28;20096;-70
2023/06/06 06:23:45;;;;;;;2.58;0.88;;;;;;;19.35;22.38;100639.19;5018667;28;20065;-71
2023/06/06 06:26:13;;;;;;;1.23;0.77;;;;;;;19.31;23.67;100636.59;5024778;28;20095;-71
2023/06/06 06:28:44;;;;;;;5.38;0.80;;;;;;;19.22;26.41;100641.06;5026818;28;20136;-70
2023/06/06 06:31:20;;;;;;;1.45;0.60;;;;;;;19.12;25.36;100638.50;5023842;28;20065;-70
2023/06/06 06:33:48;;;;;;;0.73;0.52;;;;;;;19.08;24.87;100642.94;5027333;28;20052;-70
2023/06/06 06:36:17;;;;;;;3.13;0.65;;;;;;;19.05;24.37;100640.31;5019889;28;20053;-69
2023/06/06 06:38:45;;;;;;;0.77;0.57;;;;;;;19.03;24.09;100642.97;5028206;28;20056;-69
2023/06/06 06:41:14;;;;;;;1.95;0.70;;;;;;;19.01;24.48;100636.84;5030569;28;20127;-70
2023/06/06 06:43:44;;;;;;;3.88;0.88;;;;;;;18.99;24.82;100640.38;5025680;28;20057;-70
2023/06/06 06:46:13;;;;;;;1.92;0.80;;;;;;;18.93;25.29;100633.41;5022509;28;20507;-70
2023/06/06 06:48:45;;;;;;;2.00;0.80;;;;;;;18.91;26.38;100634.28;5025476;28;20081;-70
2023/06/06 06:51:16;;;;;;;3.03;0.77;;;;;;;18.87;25.71;100633.44;5019210;28;20146;-70
2023/06/06 06:53:44;;;;;;;3.42;0.65;;;;;;;18.84;26.92;100638.69;5025239;28;20067;-69
2023/06/06 06:56:15;;;;;;;2.03;0.50;;;;;;;18.77;28.01;100635.25;5025060;28;20053;-69
2023/06/06 06:58:46;;;;;;;5.43;0.80;;;;;;;18.70;26.91;100641.38;5027064;28;20045;-70
2023/06/06 07:01:19;;;;;;;1.13;0.55;;;;;;;18.70;27.11;100648.38;5020930;28;20111;-70
2023/06/06 07:03:48;;;;;;;4.25;0.65;;;;;;;18.71;28.83;100642.25;5028040;28;20495;-70
2023/06/06 07:06:18;;;;;;;3.53;0.80;;;;;;;18.68;28.70;100639.66;5024898;28;20144;-70
2023/06/06 07:08:48;;;;;;;3.15;0.80;;;;;;;18.62;28.30;100644.06;5025819;28;20049;-70
2023/06/06 07:11:17;;;;;;;2.22;0.73;;;;;;;18.57;28.83;100645.81;5026340;28;20081;-70
2023/06/06 07:13:48;;;;;;;1.17;0.50;;;;;;;18.55;28.46;100642.31;5027377;28;20124;-69
2023/06/06 07:16:17;;;;;;;1.42;0.68;;;;;;;18.55;28.72;100652.78;5025507;28;20128;-71
2023/06/06 07:18:50;;;;;;;4.25;0.80;;;;;;;18.53;28.00;100638.84;5024128;28;20045;-70
2023/06/06 07:21:25;;;;;;;4.20;0.77;;;;;;;18.54;28.04;100632.72;5024028;28;20053;-70
2023/06/06 07:23:54;;;;;;;1.55;0.63;;;;;;;18.52;28.63;100626.63;5025305;28;20069;-70
2023/06/06 07:26:25;;;;;;;2.72;0.73;;;;;;;18.51;28.92;100638.00;5025924;28;20053;-70
2023/06/06 07:28:55;;;;;;;1.48;0.70;;;;;;;18.52;28.62;100637.09;5024283;28;20084;-70
2023/06/06 07:31:24;;;;;;;1.05;0.70;;;;;;;18.52;28.10;100637.09;5027113;28;20050;-69
2023/06/06 07:33:53;;;;;;;2.17;0.52;;;;;;;18.54;28.78;100627.47;5022535;28;20851;-70
2023/06/06 07:36:21;;;;;;;1.83;0.77;;;;;;;18.54;28.03;100627.47;5028576;28;20049;-70
2023/06/06 07:38:57;;;;;;;1.45;0.70;;;;;;;18.53;28.60;100628.38;5025835;28;20050;-70
2023/06/06 07:41:25;;;;;;;1.42;0.60;;;;;;;18.52;28.29;100631.84;5023285;28;20041;-70
2023/06/06 07:43:55;;;;;;;2.55;0.70;;;;;;;18.50;28.46;100638.00;5025717;28;20049;-69
2023/06/06 07:46:24;;;;;;;1.08;0.70;;;;;;;18.49;28.03;100637.13;5025513;28;20423;-69
2023/06/06 07:48:52;;;;;;;4.70;0.82;;;;;;;18.48;28.46;100638.00;5026059;28;20054;-69
2023/06/06 07:51:21;;;;;;;1.48;0.60;;;;;;;18.46;28.37;100631.88;5026498;28;20061;-69
2023/06/06 07:53:50;;;;;;;1.98;0.73;;;;;;;18.46;27.88;100633.63;5025124;28;20146;-70
2023/06/06 07:56:20;;;;;;;1.60;0.80;;;;;;;18.42;28.09;100638.91;5024394;28;20045;-71
2023/06/06 07:58:54;;;;;;;2.50;0.95;;;;;;;18.40;28.67;100631.94;5024773;28;20053;-71
2023/06/06 08:01:25;;;;;;;0.88;0.50;;;;;;;18.38;27.67;100636.31;5027388;28;20135;-71
2023/06/06 08:03:54;;;;;;;1.30;0.50;;;;;;;18.29;28.32;100621.50;5022864;28;20056;-70
2023/06/06 08:06:24;;;;;;;1.13;0.70;;;;;;;18.32;27.98;100633.69;5026573;28;20042;-71
2023/06/06 08:08:52;;;;;;;1.83;0.77;;;;;;;18.30;27.77;100624.97;5023391;28;20199;-70
2023/06/06 08:11:21;;;;;;;3.15;0.80;;;;;;;18.29;27.35;100626.72;5025319;28;20047;-70
2023/06/06 08:13:49;;;;;;;1.65;0.73;;;;;;;18.24;29.40;100623.28;5023166;28;20049;-70
2023/06/06 08:16:18;;;;;;;1.98;0.80;;;;;;;18.17;30.46;100634.66;5026666;28;20057;-69
2023/06/06 08:18:48;;;;;;;1.50;0.65;;;;;;;18.09;28.86;100628.56;5023891;28;20038;-70
2023/06/06 08:21:17;;;;;;;2.85;1.63;;;;;;;18.04;28.06;100627.69;5024148;28;20135;-70
2023/06/06 08:23:49;;;;;;;1.42;0.60;;;;;;;17.99;28.17;100625.97;5024143;28;20058;-70
2023/06/06 08:26:23;;;;;;;3.63;1.15;;;;;;;17.94;27.81;100627.72;5021477;28;20072;-70
2023/06/06 08:28:52;;;;;;;5.57;0.82;;;;;;;17.91;29.54;100634.72;5027136;28;20700;-69
2023/06/06 08:31:23;;;;;;;1.25;0.50;;;;;;;17.86;29.29;100631.25;5026318;28;20104;-70
2023/06/06 08:33:56;;;;;;;1.98;0.80;;;;;;;17.82;28.21;100629.50;5025680;28;20045;-70
2023/06/06 08:36:25;;;;;;;1.42;0.60;;;;;;;17.80;30.19;100626.88;5019324;28;20103;-69
2023/06/06 08:38:55;;;;;;;1.25;0.60;;;;;;;17.78;29.77;100632.09;5025502;28;20061;-70
2023/06/06 08:41:25;;;;;;;1.25;0.93;;;;;;;17.76;28.41;100633.84;5002066;28;20057;-69
2023/06/06 08:43:56;;;;;;;1.52;0.70;;;;;;;17.73;29.89;100633.84;5022648;28;20049;-69
2023/06/06 08:46:26;;;;;;;2.53;0.82;;;;;;;17.71;28.86;100633.00;5023373;28;20111;-69
2023/06/06 08:48:58;;;;;;;1.88;0.65;;;;;;;17.67;28.17;100633.84;5022825;28;20049;-69
2023/06/06 08:51:29;;;;;;;1.92;0.60;;;;;;;17.62;28.46;100621.69;5018960;28;20074;-70
2023/06/06 08:54:01;;;;;;;2.10;0.70;;;;;;;17.58;28.09;100623.41;5019149;28;20069;-70
2023/06/06 08:56:30;;;;;;;2.03;0.60;;;;;;;17.52;29.69;100618.19;5024958;28;20057;-69
2023/06/06 08:58:59;;;;;;;2.03;0.70;;;;;;;17.47;30.06;100622.53;5025612;28;20045;-69
2023/06/06 09:01:28;;;;;;;3.78;1.00;;;;;;;17.42;28.95;100619.06;5025744;28;20053;-69
2023/06/06 09:04:00;;;;;;;1.80;0.57;;;;;;;17.37;28.95;100619.06;5025360;28;20111;-69
2023/06/06 09:06:29;;;;;;;0.38;0.35;;;;;;;17.32;31.57;100619.06;5019075;28;20061;-69
2023/06/06 09:08:57;;;;;;;1.30;0.65;;;;;;;17.27;31.90;100622.56;5024423;28;20151;-69
2023/06/06 09:11:26;;;;;;;2.17;0.60;;;;;;;17.21;32.60;100623.44;5023000;28;20057;-69
2023/06/06 09:14:04;;;;;;;1.80;0.80;;;;;;;17.15;31.70;100620.81;5025122;28;20054;-71
2023/06/06 09:16:33;;;;;;;2.10;0.90;;;;;;;17.08;37.73;100622.53;5002867;28;20104;-70
2023/06/06 09:19:06;;;;;;;2.83;0.88;;;;;;;16.99;36.05;100617.31;5022776;28;20050;-69
2023/06/06 09:21:34;;;;;;;4.07;1.02;;;;;;;16.94;36.38;100611.22;5024090;28;20045;-70
2023/06/06 09:24:06;;;;;;;1.02;0.63;;;;;;;16.88;35.86;100612.09;5028073;28;20069;-70
2023/06/06 09:26:36;;;;;;;0.68;0.47;;;;;;;16.83;37.66;100616.41;5020014;28;20053;-70
2023/06/06 09:29:09;;;;;;;2.80;0.40;;;;;;;16.81;38.84;100623.38;5023776;28;20057;-69
2023/06/06 09:31:40;;;;;;;1.33;0.70;;;;;;;16.81;39.21;100614.66;5024587;28;20081;-70
2023/06/06 09:34:12;;;;;;;3.38;0.50;;;;;;;16.78;36.19;100614.66;5024001;28;20045;-69
2023/06/06 09:36:44;;;;;;;2.08;0.50;;;;;;;16.74;35.73;100608.53;5021198;28;20131;-70
2023/06/06 09:39:14;;;;;;;1.17;0.50;;;;;;;16.69;34.17;100613.75;5024200;28;20566;-70
2023/06/06 09:41:45;;;;;;;1.00;0.40;;;;;;;16.62;34.55;100611.13;5024299;28;20070;-69
2023/06/06 09:44:21;;;;;;;0.47;0.43;;;;;;;16.53;35.53;100611.97;5028502;28;20053;-69
2023/06/06 09:46:50;;;;;;;1.67;0.70;;;;;;;16.49;34.42;100616.31;5026426;28;20068;-69
2023/06/06 09:49:22;;;;;;;3.95;0.95;;;;;;;16.44;33.64;100612.81;5020372;28;20072;-70
2023/06/06 09:51:53;;;;;;;2.42;0.90;;;;;;;16.42;33.57;100619.75;5023504;28;20067;-69
2023/06/06 09:54:24;;;;;;;0.90;0.57;;;;;;;16.35;34.31;100618.00;5026799;28;20045;-69
2023/06/06 09:56:53;;;;;;;1.33;0.73;;;;;;;16.29;33.58;100615.38;5028239;28;20776;-69
2023/06/06 09:59:27;;;;;;;2.40;0.68;;;;;;;16.24;33.26;100619.69;5028766;28;20622;-69
2023/06/06 10:02:01;;;;;;;2.13;0.43;;;;;;;16.18;33.37;100615.34;5023803;28;20045;-68
2023/06/06 10:04:32;;;;;;;0.93;0.57;;;;;;;16.15;33.98;100619.66;5029345;28;20060;-69
2023/06/06 10:07:02;;;;;;;0.60;0.40;;;;;;;16.09;34.73;100616.16;5028404;28;20506;-68
2023/06/06 10:09:31;;;;;;;1.88;0.90;;;;;;;16.02;33.61;100609.16;5028606;28;20038;-69
2023/06/06 10:12:01;;;;;;;2.35;0.68;;;;;;;15.93;33.96;100610.88;5026061;28;20166;-69
2023/06/06 10:14:31;;;;;;;3.08;0.73;;;;;;;15.87;34.14;100619.53;5018699;28;20581;-70
2023/06/06 10:17:02;;;;;;;1.17;0.60;;;;;;;15.83;34.44;100613.44;5029153;28;20600;-69
2023/06/06 10:19:40;;;;;;;2.22;0.60;;;;;;;15.78;34.46;100612.53;5024483;28;20396;-70
2023/06/06 10:22:09;;;;;;;1.00;0.55;;;;;;;15.70;38.24;100622.91;5027121;28;20053;-70
2023/06/06 10:24:39;;;;;;;3.03;0.68;;;;;;;15.66;37.17;100620.22;5027130;28;20065;-70
2023/06/06 10:27:23;;;;;;;1.73;0.75;;;;;;;15.60;37.34;100626.28;5022128;28;20107;-70
2023/06/06 10:30:10;;;;;;;0.68;0.40;;;;;;;15.54;36.54;100626.25;5027268;28;20045;-70
2023/06/06 10:32:51;;;;;;;1.52;0.68;;;;;;;15.48;36.79;100623.59;5026579;28;20056;-70
2023/06/06 10:35:22;;;;;;;1.33;0.35;;;;;;;15.42;38.25;100618.34;5024771;28;20058;-69
2023/06/06 10:38:08;;;;;;;1.00;0.60;;;;;;;15.37;38.66;100609.59;5025851;28;20416;-69
2023/06/06 10:40:52;;;;;;;1.27;0.65;;;;;;;15.37;40.43;100617.41;5022641;28;20168;-70
2023/06/06 10:43:56;;;;;;;1.92;0.68;;;;;;;15.34;39.42;100612.19;5024813;28;20049;-70
2023/06/06 10:46:24;;;;;;;1.30;0.60;;;;;;;15.31;40.85;100609.56;5020558;28;20057;-70
2023/06/06 10:48:58;;;;;;;0.60;0.40;;;;;;;15.26;40.17;100605.19;5027737;28;20037;-70
2023/06/06 10:51:34;;;;;;;1.88;0.50;;;;;;;15.25;37.73;100612.97;5024050;28;20740;-69
2023/06/06 10:54:21;;;;;;;1.05;0.60;;;;;;;15.19;36.57;100603.38;5027407;28;20133;-69
2023/06/06 10:56:54;;;;;;;1.42;0.45;;;;;;;15.15;36.68;100601.63;5026166;28;20708;-70
2023/06/06 10:59:28;;;;;;;1.83;0.70;;;;;;;15.12;36.38;100601.59;5023801;28;20107;-70
2023/06/06 11:01:57;;;;;;;0.68;0.50;;;;;;;15.10;36.79;100600.72;5024621;28;20120;-69
2023/06/06 11:04:30;;;;;;;1.00;0.60;;;;;;;15.07;36.95;100603.25;5026084;28;20192;-69
2023/06/06 11:07:16;;;;;;;1.10;0.60;;;;;;;15.05;36.03;100605.00;5023326;28;20133;-69
2023/06/06 11:09:48;;;;;;;1.48;0.63;;;;;;;15.02;36.29;100604.97;5024066;28;20546;-69
2023/06/06 11:12:30;;;;;;;0.98;0.65;;;;;;;14.98;36.00;100592.75;5033850;28;20069;-69
2023/06/06 11:15:01;;;;;;;1.70;0.63;;;;;;;14.95;36.50;100592.75;5028741;28;20045;-70
2023/06/06 11:17:43;;;;;;;1.10;0.60;;;;;;;14.93;36.06;100595.31;5022394;28;20056;-70
2023/06/06 11:20:18;;;;;;;1.33;0.60;;;;;;;14.92;35.87;100597.94;5025558;28;20073;-69
2023/06/06 11:22:59;;;;;;;2.03;0.90;;;;;;;14.88;37.29;100587.47;5026301;28;20057;-69
2023/06/06 11:25:28;;;;;;;1.42;0.68;;;;;;;14.85;37.66;100590.06;5023359;28;20061;-70
2023/06/06 11:27:57;;;;;;;0.70;0.60;;;;;;;14.82;36.74;100587.44;5025770;28;20518;-69
2023/06/06 11:30:25;;;;;;;2.63;0.85;;;;;;;14.80;37.32;100589.16;5025067;28;20056;-69
2023/06/06 11:32:54;;;;;;;1.90;0.80;;;;;;;14.78;37.14;100585.66;5027969;28;20507;-68
2023/06/06 11:35:24;;;;;;;1.88;0.77;;;;;;;14.75;37.05;100590.84;5022057;28;20045;-69
2023/06/06 11:37:54;;;;;;;1.70;0.70;;;;;;;14.71;35.77;100578.66;5023531;28;20072;-69
2023/06/06 11:40:27;;;;;;;1.52;0.70;;;;;;;14.67;37.02;100582.06;5022865;28;20072;-69
2023/06/06 11:42:57;;;;;;;1.75;0.55;;;;;;;14.62;37.34;100575.94;5024932;28;20049;-69